Time;durP1;ratioP1;P1;durP2;ratioP2;P2;SDS_P1;SDS_P2;PMS_P1;PMS_P2;Temp;Humidity;BMP_temperature;BMP_pressure;BME280_temperature;BME280_humidity;BME280_pressure;Samples;Min_cycle;Max_cycle;Signal;HPM_P1;HPM_P2
2022/08/30 00:01:04;;;;;;;2.40;2.20;;;;;;;;;;5017602;28;20233;-85
2022/08/30 00:03:39;;;;;;;2.80;2.55;;;;;;;;;;5017273;28;20647;-85
2022/08/30 00:06:10;;;;;;;1.95;1.77;;;;;;;;;;5015758;28;20592;-84
2022/08/30 00:08:39;;;;;;;2.40;2.20;;;;;;;;;;5015399;28;20702;-84
2022/08/30 00:11:09;;;;;;;2.17;1.98;;;;;;;;;;5015720;28;20214;-84
2022/08/30 00:13:37;;;;;;;2.13;1.98;;;;;;;;;;5015675;28;20206;-84
2022/08/30 00:16:06;;;;;;;2.10;1.90;;;;;;;;;;5015195;28;20231;-85
2022/08/30 00:18:34;;;;;;;1.88;1.77;;;;;;;;;;5059891;23;20705;-77
2022/08/30 00:21:03;;;;;;;2.55;1.95;;;;;;;;;;5055400;28;20274;-77
2022/08/30 00:23:32;;;;;;;1.92;1.83;;;;;;;;;;5051530;28;20278;-79
2022/08/30 00:26:01;;;;;;;1.88;1.77;;;;;;;;;;5035187;28;20633;-77
2022/08/30 00:28:29;;;;;;;2.42;2.03;;;;;;;;;;5034670;28;20716;-80
2022/08/30 00:30:56;;;;;;;2.05;1.95;;;;;;;;;;5035572;28;20205;-78
2022/08/30 00:33:24;;;;;;;2.22;2.03;;;;;;;;;;5035251;28;20264;-78
2022/08/30 00:35:51;;;;;;;2.85;2.03;;;;;;;;;;5034314;28;20282;-78
2022/08/30 00:38:19;;;;;;;2.38;2.17;;;;;;;;;;5034498;28;20281;-78
2022/08/30 00:40:48;;;;;;;2.53;1.80;;;;;;;;;;5035506;28;20293;-78
2022/08/30 00:43:21;;;;;;;2.00;1.90;;;;;;;;;;5035640;28;20198;-79
2022/08/30 00:45:50;;;;;;;2.33;1.77;;;;;;;;;;5035206;28;20256;-77
2022/08/30 00:48:18;;;;;;;3.65;3.25;;;;;;;;;;5034814;28;20301;-79
2022/08/30 00:50:49;;;;;;;2.15;1.67;;;;;;;;;;5035003;28;20274;-79
2022/08/30 00:53:19;;;;;;;2.05;1.92;;;;;;;;;;5035160;28;20209;-79
2022/08/30 00:55:49;;;;;;;2.10;1.90;;;;;;;;;;5035355;28;20236;-78
2022/08/30 00:58:23;;;;;;;2.00;1.80;;;;;;;;;;5035317;28;20245;-79
2022/08/30 01:00:52;;;;;;;2.08;1.92;;;;;;;;;;5034847;28;20289;-78
2022/08/30 01:03:20;;;;;;;4.18;3.05;;;;;;;;;;5034675;28;20212;-78
2022/08/30 01:05:50;;;;;;;1.88;1.77;;;;;;;;;;5034794;28;20309;-79
2022/08/30 01:08:20;;;;;;;2.00;1.83;;;;;;;;;;5034650;28;20899;-78
2022/08/30 01:10:49;;;;;;;1.73;1.63;;;;;;;;;;5033830;28;20202;-79
2022/08/30 01:13:17;;;;;;;3.15;1.90;;;;;;;;;;5034793;28;20292;-77
2022/08/30 01:15:45;;;;;;;1.75;1.65;;;;;;;;;;5034945;28;20244;-78
2022/08/30 01:18:16;;;;;;;1.73;1.63;;;;;;;;;;5034774;28;20210;-77
2022/08/30 01:20:49;;;;;;;2.38;2.17;;;;;;;;;;5034501;28;20230;-78
2022/08/30 01:23:19;;;;;;;1.83;1.73;;;;;;;;;;5034824;28;20202;-78
2022/08/30 01:25:48;;;;;;;1.55;1.45;;;;;;;;;;5034709;28;20877;-77
2022/08/30 01:28:20;;;;;;;1.90;1.80;;;;;;;;;;5035239;28;20333;-77
2022/08/30 01:30:47;;;;;;;3.15;2.63;;;;;;;;;;5035058;28;20292;-79
2022/08/30 01:33:15;;;;;;;2.95;1.80;;;;;;;;;;5035290;28;20270;-77
2022/08/30 01:35:52;;;;;;;1.88;1.77;;;;;;;;;;5034442;28;20233;-78
2022/08/30 01:38:23;;;;;;;1.42;1.33;;;;;;;;;;5034349;28;20210;-79
2022/08/30 01:40:56;;;;;;;1.67;1.58;;;;;;;;;;5034056;28;20289;-77
2022/08/30 01:43:23;;;;;;;1.40;1.35;;;;;;;;;;5034303;28;20293;-78
2022/08/30 01:45:51;;;;;;;1.88;1.70;;;;;;;;;;5033257;28;20306;-78
2022/08/30 01:48:20;;;;;;;1.90;1.70;;;;;;;;;;5034921;28;20281;-79
2022/08/30 01:50:48;;;;;;;2.13;1.90;;;;;;;;;;5035386;28;20210;-78
2022/08/30 01:53:16;;;;;;;1.45;1.35;;;;;;;;;;5034299;28;20319;-78
2022/08/30 01:55:45;;;;;;;2.17;1.90;;;;;;;;;;5034354;28;20229;-78
2022/08/30 01:58:12;;;;;;;2.03;1.92;;;;;;;;;;5034116;28;20277;-78
2022/08/30 02:00:40;;;;;;;2.10;2.00;;;;;;;;;;5033922;28;20766;-79
2022/08/30 02:03:08;;;;;;;1.75;1.65;;;;;;;;;;5033849;28;20209;-77
2022/08/30 02:05:35;;;;;;;2.25;2.10;;;;;;;;;;5033767;28;20302;-78
2022/08/30 02:08:03;;;;;;;2.70;1.77;;;;;;;;;;5033349;28;20289;-78
2022/08/30 02:10:31;;;;;;;1.60;1.50;;;;;;;;;;5033477;28;20230;-79
2022/08/30 02:13:00;;;;;;;2.00;1.90;;;;;;;;;;5034007;28;20368;-78
2022/08/30 02:15:28;;;;;;;1.95;1.85;;;;;;;;;;5033792;28;20257;-78
2022/08/30 02:17:55;;;;;;;2.33;2.13;;;;;;;;;;5033548;28;20253;-79
2022/08/30 02:20:23;;;;;;;2.85;1.90;;;;;;;;;;5033198;28;20276;-78
2022/08/30 02:22:50;;;;;;;2.97;2.63;;;;;;;;;;5033681;28;20289;-78
2022/08/30 02:25:18;;;;;;;1.95;1.85;;;;;;;;;;5033302;28;20262;-78
2022/08/30 02:27:46;;;;;;;2.45;1.98;;;;;;;;;;5033139;28;20285;-77
2022/08/30 02:30:15;;;;;;;2.15;1.90;;;;;;;;;;5033329;28;20256;-78
2022/08/30 02:32:42;;;;;;;2.00;1.80;;;;;;;;;;5036733;28;20240;-79
2022/08/30 02:35:10;;;;;;;2.33;1.85;;;;;;;;;;5036995;28;20309;-77
2022/08/30 02:37:38;;;;;;;2.53;1.77;;;;;;;;;;5038020;28;20280;-78
2022/08/30 02:40:07;;;;;;;3.17;2.20;;;;;;;;;;5037238;28;20292;-78
2022/08/30 02:42:35;;;;;;;2.50;2.30;;;;;;;;;;5036143;28;20206;-77
2022/08/30 02:45:03;;;;;;;3.25;2.78;;;;;;;;;;5036456;28;20771;-79
2022/08/30 02:47:32;;;;;;;2.60;2.40;;;;;;;;;;5036389;28;20749;-78
2022/08/30 02:50:00;;;;;;;3.78;2.92;;;;;;;;;;5037261;28;20289;-79
2022/08/30 02:52:27;;;;;;;3.78;2.60;;;;;;;;;;5037242;28;20209;-77
2022/08/30 02:54:55;;;;;;;3.03;2.75;;;;;;;;;;5037484;28;20230;-79
2022/08/30 02:57:23;;;;;;;4.28;2.45;;;;;;;;;;5036615;28;20315;-78
2022/08/30 02:59:52;;;;;;;2.70;2.00;;;;;;;;;;5037467;28;20248;-77
2022/08/30 03:02:21;;;;;;;2.33;2.05;;;;;;;;;;5037117;28;20202;-78
2022/08/30 03:04:50;;;;;;;1.80;1.70;;;;;;;;;;5036995;28;20749;-78
2022/08/30 03:07:17;;;;;;;2.47;2.05;;;;;;;;;;5036411;28;20218;-77
2022/08/30 03:09:45;;;;;;;2.60;2.40;;;;;;;;;;5036964;28;20233;-79
2022/08/30 03:12:13;;;;;;;2.47;2.33;;;;;;;;;;5037315;28;20285;-78
2022/08/30 03:14:40;;;;;;;4.25;2.15;;;;;;;;;;5036921;28;20215;-77
2022/08/30 03:17:09;;;;;;;2.53;2.30;;;;;;;;;;5035709;28;20317;-78
2022/08/30 03:19:38;;;;;;;2.53;2.33;;;;;;;;;;5036990;28;20281;-79
2022/08/30 03:22:07;;;;;;;2.75;2.55;;;;;;;;;;5036807;28;20301;-76
2022/08/30 03:24:35;;;;;;;2.50;2.30;;;;;;;;;;5036969;28;20234;-77
2022/08/30 03:27:03;;;;;;;2.67;2.47;;;;;;;;;;5036148;28;20262;-78
2022/08/30 03:29:31;;;;;;;2.60;2.40;;;;;;;;;;5035772;28;20281;-79
2022/08/30 03:31:58;;;;;;;2.17;2.08;;;;;;;;;;5036388;28;20292;-79
2022/08/30 03:34:27;;;;;;;4.65;2.50;;;;;;;;;;5035743;28;20310;-78
2022/08/30 03:36:57;;;;;;;2.67;2.28;;;;;;;;;;5036225;28;20313;-77
2022/08/30 03:39:26;;;;;;;4.00;2.67;;;;;;;;;;5035731;28;20210;-78
2022/08/30 03:41:54;;;;;;;3.00;2.80;;;;;;;;;;5035380;28;20226;-77
2022/08/30 03:44:22;;;;;;;3.75;3.33;;;;;;;;;;5034680;28;20302;-79
2022/08/30 03:46:49;;;;;;;4.35;3.00;;;;;;;;;;5034601;28;20729;-77
2022/08/30 03:49:18;;;;;;;2.95;2.70;;;;;;;;;;5035720;28;20293;-77
2022/08/30 03:51:46;;;;;;;4.40;2.80;;;;;;;;;;5036389;28;20194;-79
2022/08/30 03:54:13;;;;;;;2.40;2.20;;;;;;;;;;5035593;28;20237;-79
2022/08/30 03:56:42;;;;;;;2.78;2.40;;;;;;;;;;5035357;28;20222;-78
2022/08/30 03:59:10;;;;;;;3.45;2.30;;;;;;;;;;5036335;28;20670;-78
2022/08/30 04:01:38;;;;;;;2.45;2.33;;;;;;;;;;5036486;28;20289;-78
2022/08/30 04:04:05;;;;;;;3.47;2.28;;;;;;;;;;5036236;28;20250;-78
2022/08/30 04:06:33;;;;;;;2.78;2.55;;;;;;;;;;5035913;28;20290;-78
2022/08/30 04:09:00;;;;;;;3.22;2.38;;;;;;;;;;5035885;28;20621;-78
2022/08/30 04:11:28;;;;;;;3.55;2.22;;;;;;;;;;5036338;28;20238;-79
2022/08/30 04:13:57;;;;;;;2.40;1.90;;;;;;;;;;5036179;28;20253;-78
2022/08/30 04:16:25;;;;;;;2.70;2.47;;;;;;;;;;5035862;28;20203;-78
2022/08/30 04:18:52;;;;;;;4.68;2.42;;;;;;;;;;5035572;28;20704;-77
2022/08/30 04:21:20;;;;;;;2.83;2.50;;;;;;;;;;5036687;28;20204;-79
2022/08/30 04:23:48;;;;;;;2.47;2.28;;;;;;;;;;5035148;28;20214;-78
2022/08/30 04:26:15;;;;;;;3.55;2.15;;;;;;;;;;5034867;28;20285;-78
2022/08/30 04:28:42;;;;;;;2.65;2.40;;;;;;;;;;5035809;28;20821;-79
2022/08/30 04:31:14;;;;;;;2.00;1.90;;;;;;;;;;5035964;28;20641;-78
2022/08/30 04:33:43;;;;;;;3.13;2.60;;;;;;;;;;5035416;28;20237;-79
2022/08/30 04:36:12;;;;;;;2.33;2.13;;;;;;;;;;5035306;28;20198;-79
2022/08/30 04:38:41;;;;;;;2.38;2.17;;;;;;;;;;5035387;28;20249;-78
2022/08/30 04:41:11;;;;;;;2.75;1.88;;;;;;;;;;5035078;28;20206;-77
2022/08/30 04:43:39;;;;;;;2.10;2.00;;;;;;;;;;5034886;28;20210;-78
2022/08/30 04:46:08;;;;;;;2.20;2.03;;;;;;;;;;5034904;28;20713;-78
2022/08/30 04:48:39;;;;;;;2.67;2.25;;;;;;;;;;5034709;28;20241;-78
2022/08/30 04:51:07;;;;;;;2.17;1.98;;;;;;;;;;5035352;28;20285;-78
2022/08/30 04:53:35;;;;;;;2.10;1.95;;;;;;;;;;5033924;28;20289;-78
2022/08/30 04:56:09;;;;;;;2.33;2.00;;;;;;;;;;5033789;28;20229;-78
2022/08/30 04:58:36;;;;;;;1.80;1.70;;;;;;;;;;5034348;28;20309;-78
2022/08/30 05:01:04;;;;;;;2.22;2.10;;;;;;;;;;5034643;28;20709;-79
2022/08/30 05:03:32;;;;;;;2.15;2.05;;;;;;;;;;5034481;28;20202;-78
2022/08/30 05:06:00;;;;;;;3.53;1.77;;;;;;;;;;5034437;28;20248;-78
2022/08/30 05:08:28;;;;;;;2.00;1.80;;;;;;;;;;5034009;28;20285;-78
2022/08/30 05:10:57;;;;;;;2.83;1.65;;;;;;;;;;5034290;28;20686;-78
2022/08/30 05:13:24;;;;;;;1.80;1.70;;;;;;;;;;5033466;28;20638;-80
2022/08/30 05:15:52;;;;;;;2.30;1.83;;;;;;;;;;5032997;28;20300;-80
2022/08/30 05:18:20;;;;;;;1.90;1.70;;;;;;;;;;5032497;28;20324;-81
2022/08/30 05:20:47;;;;;;;1.70;1.60;;;;;;;;;;5032615;28;20203;-81
2022/08/30 05:23:16;;;;;;;2.00;1.90;;;;;;;;;;5032802;28;20737;-80
2022/08/30 05:25:44;;;;;;;2.05;1.95;;;;;;;;;;5032237;28;20318;-81
2022/08/30 05:28:12;;;;;;;2.80;1.90;;;;;;;;;;5032543;28;20268;-81
2022/08/30 05:30:39;;;;;;;1.50;1.40;;;;;;;;;;5033037;28;20206;-80
2022/08/30 05:33:07;;;;;;;1.85;1.65;;;;;;;;;;5032271;28;20641;-81
2022/08/30 05:35:34;;;;;;;1.50;1.40;;;;;;;;;;5032602;28;20309;-81
2022/08/30 05:38:02;;;;;;;1.10;1.10;;;;;;;;;;5031973;28;20317;-80
2022/08/30 05:40:31;;;;;;;1.70;1.60;;;;;;;;;;5032624;28;20273;-79
2022/08/30 05:42:59;;;;;;;1.90;1.52;;;;;;;;;;5032448;28;20745;-78
2022/08/30 05:45:26;;;;;;;2.25;1.85;;;;;;;;;;5030543;28;20250;-79
2022/08/30 05:47:54;;;;;;;2.17;1.98;;;;;;;;;;5032080;28;20697;-78
2022/08/30 05:50:22;;;;;;;1.70;1.60;;;;;;;;;;5024269;28;20205;-80
2022/08/30 05:52:49;;;;;;;1.80;1.70;;;;;;;;;;5032459;28;20208;-80
2022/08/30 05:55:17;;;;;;;1.90;1.70;;;;;;;;;;5031999;28;20225;-79
2022/08/30 05:57:46;;;;;;;1.73;1.63;;;;;;;;;;5032194;28;20312;-80
2022/08/30 06:00:17;;;;;;;1.90;1.38;;;;;;;;;;5032713;28;20237;-79
2022/08/30 06:02:45;;;;;;;1.48;1.38;;;;;;;;;;5032758;28;20249;-79
2022/08/30 06:07:38;;;;;;;1.70;1.52;;;;;;;;;;5048469;22;20240;-77
2022/08/30 06:10:06;;;;;;;2.58;1.98;;;;;;;;;;5034491;28;20266;-77
2022/08/30 06:12:34;;;;;;;1.60;1.50;;;;;;;;;;5043184;28;20284;-77
2022/08/30 06:15:03;;;;;;;2.33;1.73;;;;;;;;;;5038079;28;20241;-78
2022/08/30 06:17:31;;;;;;;1.85;1.75;;;;;;;;;;5034856;28;20301;-77
2022/08/30 06:19:58;;;;;;;2.03;1.83;;;;;;;;;;5051991;28;20198;-78
2022/08/30 06:22:26;;;;;;;2.53;2.05;;;;;;;;;;5054609;28;20739;-77
2022/08/30 06:24:53;;;;;;;1.75;1.52;;;;;;;;;;5040643;28;20293;-78
2022/08/30 06:27:21;;;;;;;2.05;1.85;;;;;;;;;;5037822;28;20736;-79
2022/08/30 06:29:51;;;;;;;1.40;1.30;;;;;;;;;;5053277;28;20287;-78
2022/08/30 06:32:20;;;;;;;1.40;1.30;;;;;;;;;;5053886;28;20202;-78
2022/08/30 06:34:48;;;;;;;1.77;1.67;;;;;;;;;;5054235;28;20236;-78
2022/08/30 06:37:16;;;;;;;2.45;1.63;;;;;;;;;;5054753;28;20625;-79
2022/08/30 06:39:43;;;;;;;1.60;1.50;;;;;;;;;;5054909;28;20660;-79
2022/08/30 06:42:11;;;;;;;1.98;1.88;;;;;;;;;;5054529;28;20233;-78
2022/08/30 06:44:38;;;;;;;1.92;1.70;;;;;;;;;;5054497;28;20643;-78
2022/08/30 06:47:06;;;;;;;2.65;2.35;;;;;;;;;;5035762;28;20679;-78
2022/08/30 06:49:35;;;;;;;3.15;2.42;;;;;;;;;;5034882;28;20284;-78
2022/08/30 06:52:03;;;;;;;1.63;1.52;;;;;;;;;;5034460;28;20286;-78
2022/08/30 06:54:31;;;;;;;1.30;1.20;;;;;;;;;;5034718;28;20289;-78
2022/08/30 06:56:58;;;;;;;1.83;1.70;;;;;;;;;;5034382;28;20230;-78
2022/08/30 06:59:26;;;;;;;2.35;1.65;;;;;;;;;;5034243;28;20225;-78
2022/08/30 07:01:54;;;;;;;1.40;1.30;;;;;;;;;;5047889;28;20676;-78
2022/08/30 07:04:21;;;;;;;1.40;1.30;;;;;;;;;;5054589;28;20284;-78
2022/08/30 07:06:50;;;;;;;1.65;1.50;;;;;;;;;;5053615;28;20320;-78
2022/08/30 07:09:18;;;;;;;1.63;1.52;;;;;;;;;;5054271;28;20296;-77
2022/08/30 07:11:46;;;;;;;1.75;1.65;;;;;;;;;;5054160;28;20673;-78
2022/08/30 07:14:13;;;;;;;3.47;1.77;;;;;;;;;;5054126;28;20653;-79
2022/08/30 07:16:41;;;;;;;1.88;1.77;;;;;;;;;;5038360;28;20262;-79
2022/08/30 07:19:08;;;;;;;2.22;1.88;;;;;;;;;;5032162;28;20685;-79
2022/08/30 07:21:38;;;;;;;3.25;2.17;;;;;;;;;;5033648;28;20198;-78
2022/08/30 07:24:08;;;;;;;2.30;2.13;;;;;;;;;;5033804;28;20292;-78
2022/08/30 07:26:40;;;;;;;4.13;2.15;;;;;;;;;;5034976;28;20296;-80
2022/08/30 07:29:08;;;;;;;2.75;2.00;;;;;;;;;;5035783;28;20208;-79
2022/08/30 07:31:36;;;;;;;1.95;1.70;;;;;;;;;;5035858;28;20226;-78
2022/08/30 07:34:04;;;;;;;1.60;1.50;;;;;;;;;;5035444;28;20289;-80
2022/08/30 07:36:32;;;;;;;2.17;1.98;;;;;;;;;;5035271;28;20694;-79
2022/08/30 07:38:59;;;;;;;1.80;1.70;;;;;;;;;;5035068;28;20313;-79
2022/08/30 07:41:31;;;;;;;2.78;1.92;;;;;;;;;;5034895;28;20266;-79
2022/08/30 07:43:59;;;;;;;1.88;1.77;;;;;;;;;;5035061;28;20202;-78
2022/08/30 07:46:26;;;;;;;2.05;1.95;;;;;;;;;;5034868;28;20305;-79
2022/08/30 07:48:55;;;;;;;2.22;1.85;;;;;;;;;;5034908;28;20226;-79
2022/08/30 07:51:25;;;;;;;1.40;1.30;;;;;;;;;;5035355;28;20194;-79
2022/08/30 07:53:53;;;;;;;2.17;1.98;;;;;;;;;;5035139;28;20644;-79
2022/08/30 07:56:21;;;;;;;2.42;1.85;;;;;;;;;;5034550;28;20223;-80
2022/08/30 07:58:50;;;;;;;1.45;1.35;;;;;;;;;;5035303;28;20233;-79
2022/08/30 08:01:19;;;;;;;1.83;1.73;;;;;;;;;;5043034;28;20240;-79
2022/08/30 08:03:49;;;;;;;2.60;2.00;;;;;;;;;;5055273;28;20197;-81
2022/08/30 08:06:18;;;;;;;2.58;2.30;;;;;;;;;;5055020;28;20740;-80
2022/08/30 08:08:46;;;;;;;2.58;2.38;;;;;;;;;;5055174;28;20221;-78
2022/08/30 08:11:16;;;;;;;2.08;1.70;;;;;;;;;;5054425;28;20233;-79
2022/08/30 08:13:46;;;;;;;2.95;2.15;;;;;;;;;;5054848;28;20245;-79
2022/08/30 08:16:15;;;;;;;1.75;1.42;;;;;;;;;;5042929;28;20659;-78
2022/08/30 08:18:43;;;;;;;2.20;1.90;;;;;;;;;;5033523;28;20209;-79
2022/08/30 08:21:10;;;;;;;2.03;1.85;;;;;;;;;;5034899;28;20238;-79
2022/08/30 08:23:38;;;;;;;1.80;1.70;;;;;;;;;;5034481;28;20202;-78
2022/08/30 08:26:06;;;;;;;2.45;2.25;;;;;;;;;;5034753;28;20250;-80
2022/08/30 08:28:33;;;;;;;2.60;1.90;;;;;;;;;;5034251;28;20648;-79
2022/08/30 08:31:01;;;;;;;1.70;1.60;;;;;;;;;;5033920;28;20241;-79
2022/08/30 08:33:30;;;;;;;1.60;1.50;;;;;;;;;;5034071;28;20202;-79
2022/08/30 08:35:57;;;;;;;2.55;2.35;;;;;;;;;;5035044;28;20250;-80
2022/08/30 08:38:25;;;;;;;2.40;2.20;;;;;;;;;;5035661;28;20240;-79
2022/08/30 08:41:02;;;;;;;5.50;3.58;;;;;;;;;;5035051;28;20222;-83
2022/08/30 08:43:32;;;;;;;3.13;2.13;;;;;;;;;;5035361;28;20237;-84
2022/08/30 08:46:06;;;;;;;1.70;1.52;;;;;;;;;;5036661;28;20258;-83
2022/08/30 08:48:42;;;;;;;3.20;1.77;;;;;;;;;;5035463;28;20210;-83
2022/08/30 08:54:01;;;;;;;3.42;2.08;;;;;;;;;;5033293;28;20229;-84
2022/08/30 08:56:29;;;;;;;1.50;1.40;;;;;;;;;;5033939;28;20254;-84
2022/08/30 08:58:58;;;;;;;1.85;1.75;;;;;;;;;;5032955;28;20635;-83
2022/08/30 09:01:28;;;;;;;1.55;1.45;;;;;;;;;;5042483;28;20665;-84
2022/08/30 09:03:59;;;;;;;2.72;1.60;;;;;;;;;;5053801;28;20236;-83
2022/08/30 09:06:50;;;;;;;1.73;1.63;;;;;;;;;;5052322;28;20268;-83
2022/08/30 09:09:20;;;;;;;2.20;2.00;;;;;;;;;;5052782;28;20281;-84
2022/08/30 09:11:48;;;;;;;2.20;2.10;;;;;;;;;;5052165;28;20289;-83
2022/08/30 09:14:22;;;;;;;2.63;1.92;;;;;;;;;;5052143;28;20646;-83
2022/08/30 09:16:56;;;;;;;1.83;1.65;;;;;;;;;;5034099;28;20273;-83
2022/08/30 09:19:40;;;;;;;1.30;1.20;;;;;;;;;;5032516;28;20244;-83
2022/08/30 09:22:25;;;;;;;1.80;1.70;;;;;;;;;;5032648;28;20198;-85
2022/08/30 09:24:59;;;;;;;2.60;2.40;;;;;;;;;;5031982;28;20234;-83
2022/08/30 09:27:30;;;;;;;1.45;1.35;;;;;;;;;;5031505;28;20249;-83
2022/08/30 09:30:02;;;;;;;1.52;1.42;;;;;;;;;;5032446;28;20658;-83
2022/08/30 09:32:37;;;;;;;1.92;1.73;;;;;;;;;;5033133;28;20233;-82
2022/08/30 09:35:12;;;;;;;1.88;1.77;;;;;;;;;;5033228;28;20300;-84
2022/08/30 09:37:45;;;;;;;2.15;1.95;;;;;;;;;;5033943;28;20197;-84
2022/08/30 09:40:21;;;;;;;4.60;1.90;;;;;;;;;;5033627;28;20257;-82
2022/08/30 09:43:02;;;;;;;2.72;2.05;;;;;;;;;;5033815;28;20202;-83
2022/08/30 09:45:34;;;;;;;1.52;1.40;;;;;;;;;;5033430;28;20217;-83
2022/08/30 09:48:20;;;;;;;3.20;2.00;;;;;;;;;;5033046;28;20399;-83
2022/08/30 09:50:52;;;;;;;1.67;1.58;;;;;;;;;;5032615;28;20683;-82
2022/08/30 09:53:25;;;;;;;1.33;1.30;;;;;;;;;;5034013;28;20682;-83
2022/08/30 09:56:01;;;;;;;1.40;1.30;;;;;;;;;;5033850;28;20264;-83
2022/08/30 09:58:44;;;;;;;4.43;1.58;;;;;;;;;;5032626;28;20237;-83
2022/08/30 10:01:15;;;;;;;1.73;1.63;;;;;;;;;;5039862;28;20378;-83
2022/08/30 10:03:49;;;;;;;1.50;1.40;;;;;;;;;;5052486;28;20209;-82
2022/08/30 10:06:27;;;;;;;1.50;1.40;;;;;;;;;;5051814;28;20257;-82
2022/08/30 10:09:07;;;;;;;2.30;2.10;;;;;;;;;;5052169;28;20237;-83
2022/08/30 10:11:42;;;;;;;2.33;1.83;;;;;;;;;;5052000;28;20245;-83
2022/08/30 10:14:50;;;;;;;2.65;1.70;;;;;;;;;;5052065;28;20211;-83
2022/08/30 10:17:37;;;;;;;1.60;1.50;;;;;;;;;;5002221;28;20254;-83
2022/08/30 10:20:17;;;;;;;1.85;1.63;;;;;;;;;;5012745;28;20213;-82
2022/08/30 10:22:50;;;;;;;2.22;1.52;;;;;;;;;;5012542;28;20876;-83
2022/08/30 10:25:22;;;;;;;2.30;1.80;;;;;;;;;;5031298;28;20207;-83
2022/08/30 10:27:54;;;;;;;1.65;1.55;;;;;;;;;;5032240;28;20577;-82
2022/08/30 10:30:23;;;;;;;2.78;2.00;;;;;;;;;;5032472;28;20237;-83
2022/08/30 10:32:53;;;;;;;1.85;1.75;;;;;;;;;;5031877;28;20206;-83
2022/08/30 10:35:23;;;;;;;2.83;1.88;;;;;;;;;;5032726;28;20241;-84
2022/08/30 10:37:56;;;;;;;1.67;1.58;;;;;;;;;;5031574;28;20241;-84
2022/08/30 10:43:26;;;;;;;3.53;2.33;;;;;;;;;;5031788;28;20217;-83
2022/08/30 10:45:59;;;;;;;2.88;1.90;;;;;;;;;;5031439;28;20278;-84
2022/08/30 10:48:30;;;;;;;2.10;1.90;;;;;;;;;;5031247;28;20203;-83
2022/08/30 10:51:06;;;;;;;2.20;2.00;;;;;;;;;;5031869;28;20293;-84
2022/08/30 10:53:43;;;;;;;2.03;1.92;;;;;;;;;;5032750;28;20253;-79
2022/08/30 10:56:14;;;;;;;1.85;1.75;;;;;;;;;;5035670;28;20301;-80
2022/08/30 10:58:43;;;;;;;2.47;1.85;;;;;;;;;;5035019;28;20206;-82
2022/08/30 11:01:42;;;;;;;1.65;1.42;;;;;;;;;;5044590;28;20300;-81
2022/08/30 11:04:39;;;;;;;2.53;1.80;;;;;;;;;;5056480;28;20281;-80
2022/08/30 11:07:18;;;;;;;1.73;1.40;;;;;;;;;;5056683;28;20234;-81
2022/08/30 11:10:06;;;;;;;2.15;1.90;;;;;;;;;;5056192;28;20284;-80
2022/08/30 11:12:36;;;;;;;1.80;1.70;;;;;;;;;;5056489;28;20241;-80
2022/08/30 11:15:18;;;;;;;1.73;1.63;;;;;;;;;;5054589;28;20606;-81
2022/08/30 11:17:55;;;;;;;1.70;1.60;;;;;;;;;;5038504;28;20206;-81
2022/08/30 11:20:31;;;;;;;2.40;1.90;;;;;;;;;;5036631;28;20374;-80
2022/08/30 11:23:31;;;;;;;1.67;1.58;;;;;;;;;;5037595;28;20229;-81
2022/08/30 11:26:03;;;;;;;2.67;1.77;;;;;;;;;;5036811;28;20723;-82
2022/08/30 11:29:13;;;;;;;1.65;1.55;;;;;;;;;;5035288;28;20234;-81
2022/08/30 11:31:42;;;;;;;1.50;1.40;;;;;;;;;;4953855;29;20287;-79
2022/08/30 11:34:11;;;;;;;1.85;1.42;;;;;;;;;;5024366;28;20280;-81
2022/08/30 11:37:03;;;;;;;2.22;1.40;;;;;;;;;;5035184;28;20218;-81
2022/08/30 11:40:09;;;;;;;2.60;1.90;;;;;;;;;;5031652;28;20204;-81
2022/08/30 11:42:43;;;;;;;2.05;1.95;;;;;;;;;;5036216;28;20230;-80
2022/08/30 11:45:51;;;;;;;2.08;1.88;;;;;;;;;;5037077;28;20225;-81
2022/08/30 11:48:50;;;;;;;1.90;1.80;;;;;;;;;;5035794;28;20252;-80
2022/08/30 11:52:10;;;;;;;2.25;2.00;;;;;;;;;;5036487;28;20202;-81
2022/08/30 11:54:48;;;;;;;1.98;1.77;;;;;;;;;;5016411;28;20249;-80
2022/08/30 11:57:26;;;;;;;2.17;1.92;;;;;;;;;;5040853;28;20697;-80
2022/08/30 12:00:07;;;;;;;1.70;1.60;;;;;;;;;;5034991;28;20233;-81
2022/08/30 12:02:54;;;;;;;1.95;1.80;;;;;;;;;;5035384;28;20229;-81
2022/08/30 12:08:56;;;;;;;1.60;1.50;;;;;;;;;;5029062;22;20249;-81
2022/08/30 12:12:04;;;;;;;2.00;1.90;;;;;;;;;;5023211;28;20281;-80
2022/08/30 12:14:47;;;;;;;1.70;1.60;;;;;;;;;;5028785;28;20198;-81
2022/08/30 12:20:22;;;;;;;1.60;1.50;;;;;;;;;;4995429;28;20211;-80
2022/08/30 12:22:51;;;;;;;1.92;1.80;;;;;;;;;;4994426;28;20286;-80
2022/08/30 12:25:27;;;;;;;1.92;1.83;;;;;;;;;;5009642;28;20194;-80
2022/08/30 12:28:11;;;;;;;2.42;2.22;;;;;;;;;;5034266;28;20226;-80
2022/08/30 12:30:39;;;;;;;2.17;2.08;;;;;;;;;;5034337;28;20294;-80
2022/08/30 12:33:12;;;;;;;1.55;1.45;;;;;;;;;;5034046;28;20559;-80
2022/08/30 12:35:42;;;;;;;2.45;2.25;;;;;;;;;;5033930;28;20675;-79
2022/08/30 12:38:20;;;;;;;1.63;1.52;;;;;;;;;;5027117;28;20254;-80
2022/08/30 12:40:53;;;;;;;1.52;1.42;;;;;;;;;;5014157;28;20206;-79
2022/08/30 12:43:30;;;;;;;2.80;2.60;;;;;;;;;;5014383;28;20314;-80
2022/08/30 12:46:02;;;;;;;1.52;1.42;;;;;;;;;;5015137;28;20217;-81
2022/08/30 12:48:35;;;;;;;1.73;1.60;;;;;;;;;;5014668;28;20646;-82
2022/08/30 12:51:04;;;;;;;1.60;1.50;;;;;;;;;;5015971;28;20235;-80
2022/08/30 12:53:35;;;;;;;1.75;1.65;;;;;;;;;;5015563;28;20290;-81
2022/08/30 12:56:08;;;;;;;1.60;1.50;;;;;;;;;;5016335;28;20246;-82
2022/08/30 12:58:42;;;;;;;1.63;1.52;;;;;;;;;;5014178;28;20235;-80
2022/08/30 13:01:25;;;;;;;2.17;2.08;;;;;;;;;;5016870;28;20334;-81
2022/08/30 13:04:01;;;;;;;2.33;1.85;;;;;;;;;;5034339;28;20210;-84
2022/08/30 13:06:51;;;;;;;1.55;1.45;;;;;;;;;;5033221;28;20225;-81
2022/08/30 13:09:29;;;;;;;1.45;1.35;;;;;;;;;;5017734;28;20293;-81
2022/08/30 13:11:57;;;;;;;4.78;1.60;;;;;;;;;;5014148;28;20249;-82
2022/08/30 13:14:35;;;;;;;2.33;2.22;;;;;;;;;;5014298;28;20207;-81
2022/08/30 13:17:09;;;;;;;3.33;3.05;;;;;;;;;;5012923;28;20702;-79
2022/08/30 13:19:40;;;;;;;2.35;2.10;;;;;;;;;;5014197;28;20294;-82
2022/08/30 13:22:25;;;;;;;2.15;1.45;;;;;;;;;;5013746;28;20225;-80
2022/08/30 13:24:54;;;;;;;1.70;1.60;;;;;;;;;;5014035;28;20653;-81
2022/08/30 13:27:21;;;;;;;1.70;1.60;;;;;;;;;;5013867;28;20306;-81
2022/08/30 13:29:49;;;;;;;1.88;1.60;;;;;;;;;;5013563;28;20286;-81
2022/08/30 13:32:17;;;;;;;2.00;1.80;;;;;;;;;;5013838;28;20199;-83
2022/08/30 13:34:46;;;;;;;2.38;1.75;;;;;;;;;;5012914;28;20213;-82
2022/08/30 13:37:18;;;;;;;2.05;1.90;;;;;;;;;;5013518;28;20443;-82
2022/08/30 13:39:45;;;;;;;1.83;1.70;;;;;;;;;;5013303;28;20298;-81
2022/08/30 13:42:13;;;;;;;2.30;1.58;;;;;;;;;;5012761;28;20314;-82
2022/08/30 13:44:41;;;;;;;2.63;1.70;;;;;;;;;;5013344;28;20203;-81
2022/08/30 13:47:10;;;;;;;1.52;1.42;;;;;;;;;;5012529;28;20285;-80
2022/08/30 13:49:40;;;;;;;1.48;1.38;;;;;;;;;;5013000;28;20289;-82
2022/08/30 13:52:10;;;;;;;1.55;1.45;;;;;;;;;;5013426;28;20199;-82
2022/08/30 13:54:37;;;;;;;1.95;1.85;;;;;;;;;;5013491;28;20206;-81
2022/08/30 13:57:06;;;;;;;1.60;1.50;;;;;;;;;;5011963;28;20310;-81
2022/08/30 13:59:34;;;;;;;1.40;1.30;;;;;;;;;;5014069;28;20230;-82
2022/08/30 14:02:02;;;;;;;1.70;1.60;;;;;;;;;;5023094;28;20222;-83
2022/08/30 14:04:30;;;;;;;1.60;1.48;;;;;;;;;;5033260;28;20281;-83
2022/08/30 14:06:57;;;;;;;1.73;1.63;;;;;;;;;;5033002;28;20226;-81
2022/08/30 14:09:26;;;;;;;1.95;1.60;;;;;;;;;;5015722;28;20242;-81
2022/08/30 14:11:54;;;;;;;1.92;1.70;;;;;;;;;;5012332;28;20217;-81
2022/08/30 14:14:21;;;;;;;3.85;2.38;;;;;;;;;;5012755;28;20289;-81
2022/08/30 14:16:49;;;;;;;2.00;1.90;;;;;;;;;;5012309;28;20792;-79
2022/08/30 14:19:17;;;;;;;1.60;1.50;;;;;;;;;;5013326;28;20815;-82
2022/08/30 14:21:46;;;;;;;1.50;1.40;;;;;;;;;;5013767;28;20243;-79
2022/08/30 14:24:13;;;;;;;1.42;1.33;;;;;;;;;;5014536;28;20671;-83
2022/08/30 14:26:46;;;;;;;1.20;1.20;;;;;;;;;;5012869;28;20255;-79
2022/08/30 14:29:17;;;;;;;2.65;1.58;;;;;;;;;;5016311;28;20203;-81
2022/08/30 14:31:47;;;;;;;2.28;1.77;;;;;;;;;;5016761;28;20230;-81
2022/08/30 14:34:16;;;;;;;2.53;1.70;;;;;;;;;;5016405;28;20210;-81
2022/08/30 14:36:45;;;;;;;1.45;1.40;;;;;;;;;;5015984;28;20255;-80
2022/08/30 14:39:20;;;;;;;1.35;1.35;;;;;;;;;;5016349;28;20285;-82
2022/08/30 14:41:51;;;;;;;2.38;1.33;;;;;;;;;;5016171;28;20237;-80
2022/08/30 14:44:21;;;;;;;1.75;1.60;;;;;;;;;;5015363;28;20271;-80
2022/08/30 14:46:49;;;;;;;1.75;1.65;;;;;;;;;;5021892;28;20239;-81
2022/08/30 14:49:18;;;;;;;2.08;1.98;;;;;;;;;;5016303;28;20318;-80
2022/08/30 14:51:47;;;;;;;1.95;1.85;;;;;;;;;;5016342;28;20294;-81
2022/08/30 14:54:15;;;;;;;3.33;1.88;;;;;;;;;;5016827;28;20195;-80
2022/08/30 14:56:43;;;;;;;1.65;1.55;;;;;;;;;;5015964;28;20309;-82
2022/08/30 14:59:12;;;;;;;2.03;1.88;;;;;;;;;;5015302;28;20290;-82
2022/08/30 15:01:41;;;;;;;1.75;1.63;;;;;;;;;;5022396;28;20281;-81
2022/08/30 15:04:10;;;;;;;1.80;1.40;;;;;;;;;;5035550;28;20272;-81
2022/08/30 15:06:39;;;;;;;2.00;1.77;;;;;;;;;;5034737;28;20234;-81
2022/08/30 15:09:10;;;;;;;1.55;1.45;;;;;;;;;;5021261;28;20294;-80
2022/08/30 15:11:38;;;;;;;1.13;1.13;;;;;;;;;;5015046;28;20234;-81
2022/08/30 15:14:06;;;;;;;1.70;1.60;;;;;;;;;;5015200;28;20741;-81
2022/08/30 15:16:38;;;;;;;1.30;1.20;;;;;;;;;;5015305;28;20317;-82
2022/08/30 15:19:08;;;;;;;2.08;1.88;;;;;;;;;;5015471;28;20640;-81
2022/08/30 15:21:39;;;;;;;1.13;1.10;;;;;;;;;;5015303;28;20286;-82